sensor_id;sensor_type;location;lat;lon;timestamp;P1;durP1;ratioP1;P2;durP2;ratioP2
40847;SDS011;26570;50.962;5.340;2022-12-10T01:03:25;140.57;;;43.47;;
40847;SDS011;26570;50.962;5.340;2022-12-10T01:06:24;147.27;;;43.40;;
40847;SDS011;26570;50.962;5.340;2022-12-10T01:09:12;151.37;;;44.17;;
40847;SDS011;26570;50.962;5.340;2022-12-10T01:12:00;160.40;;;44.57;;
40847;SDS011;26570;50.962;5.340;2022-12-10T01:14:47;157.90;;;47.80;;
40847;SDS011;26570;50.962;5.340;2022-12-10T01:17:55;155.57;;;46.17;;
40847;SDS011;26570;50.962;5.340;2022-12-10T01:20:40;144.27;;;46.13;;
40847;SDS011;26570;50.962;5.340;2022-12-10T01:23:25;155.57;;;46.20;;
40847;SDS011;26570;50.962;5.340;2022-12-10T01:26:15;162.37;;;47.83;;
40847;SDS011;26570;50.962;5.340;2022-12-10T01:29:11;155.50;;;47.73;;
40847;SDS011;26570;50.962;5.340;2022-12-10T01:31:57;143.87;;;47.73;;
40847;SDS011;26570;50.962;5.340;2022-12-10T01:34:43;159.97;;;48.03;;
40847;SDS011;26570;50.962;5.340;2022-12-10T01:37:28;152.60;;;45.77;;
40847;SDS011;26570;50.962;5.340;2022-12-10T01:40:13;149.00;;;44.80;;
40847;SDS011;26570;50.962;5.340;2022-12-10T01:42:59;149.10;;;46.80;;
40847;SDS011;26570;50.962;5.340;2022-12-10T01:45:44;150.03;;;48.13;;
40847;SDS011;26570;50.962;5.340;2022-12-10T01:48:29;133.93;;;44.43;;
40847;SDS011;26570;50.962;5.340;2022-12-10T01:51:15;134.77;;;44.67;;
40847;SDS011;26570;50.962;5.340;2022-12-10T01:54:01;129.80;;;48.63;;
40847;SDS011;26570;50.962;5.340;2022-12-10T01:56:50;123.57;;;43.97;;
40847;SDS011;26570;50.962;5.340;2022-12-10T01:59:42;117.20;;;42.10;;
40847;SDS011;26570;50.962;5.340;2022-12-10T02:08:26;127.83;;;43.33;;
40847;SDS011;26570;50.962;5.340;2022-12-10T02:14:09;121.27;;;43.20;;
40847;SDS011;26570;50.962;5.340;2022-12-10T02:17:12;135.47;;;45.23;;
40847;SDS011;26570;50.962;5.340;2022-12-10T02:20:03;124.53;;;45.27;;
40847;SDS011;26570;50.962;5.340;2022-12-10T02:23:24;117.00;;;42.20;;
40847;SDS011;26570;50.962;5.340;2022-12-10T02:26:23;118.17;;;42.60;;
40847;SDS011;26570;50.962;5.340;2022-12-10T02:32:08;123.33;;;45.57;;
40847;SDS011;26570;50.962;5.340;2022-12-10T02:34:58;121.73;;;41.40;;
40847;SDS011;26570;50.962;5.340;2022-12-10T02:37:50;108.90;;;41.77;;
40847;SDS011;26570;50.962;5.340;2022-12-10T02:40:41;123.03;;;42.85;;
40847;SDS011;26570;50.962;5.340;2022-12-10T02:43:53;105.47;;;41.63;;
40847;SDS011;26570;50.962;5.340;2022-12-10T02:46:41;100.80;;;38.63;;
40847;SDS011;26570;50.962;5.340;2022-12-10T02:49:29;94.90;;;36.10;;
40847;SDS011;26570;50.962;5.340;2022-12-10T02:52:16;94.83;;;38.73;;
40847;SDS011;26570;50.962;5.340;2022-12-10T02:55:06;96.73;;;38.13;;
40847;SDS011;26570;50.962;5.340;2022-12-10T02:58:03;93.30;;;37.33;;
40847;SDS011;26570;50.962;5.340;2022-12-10T03:01:06;91.10;;;36.00;;
40847;SDS011;26570;50.962;5.340;2022-12-10T03:04:04;92.80;;;38.20;;
40847;SDS011;26570;50.962;5.340;2022-12-10T03:07:10;87.53;;;36.63;;
40847;SDS011;26570;50.962;5.340;2022-12-10T03:10:14;85.95;;;34.83;;
40847;SDS011;26570;50.962;5.340;2022-12-10T03:13:09;83.47;;;32.87;;
40847;SDS011;26570;50.962;5.340;2022-12-10T03:15:59;91.68;;;35.97;;
40847;SDS011;26570;50.962;5.340;2022-12-10T03:18:47;86.40;;;36.27;;
40847;SDS011;26570;50.962;5.340;2022-12-10T03:21:38;82.83;;;35.33;;
40847;SDS011;26570;50.962;5.340;2022-12-10T03:24:25;90.77;;;37.27;;
40847;SDS011;26570;50.962;5.340;2022-12-10T03:27:12;92.10;;;37.43;;
40847;SDS011;26570;50.962;5.340;2022-12-10T03:29:58;96.47;;;38.47;;
40847;SDS011;26570;50.962;5.340;2022-12-10T03:32:44;97.80;;;37.87;;
40847;SDS011;26570;50.962;5.340;2022-12-10T03:35:30;90.70;;;35.90;;
40847;SDS011;26570;50.962;5.340;2022-12-10T03:38:16;94.20;;;36.77;;
40847;SDS011;26570;50.962;5.340;2022-12-10T03:41:24;95.53;;;37.23;;
40847;SDS011;26570;50.962;5.340;2022-12-10T03:44:10;85.60;;;35.33;;
40847;SDS011;26570;50.962;5.340;2022-12-10T03:46:55;96.73;;;36.23;;
40847;SDS011;26570;50.962;5.340;2022-12-10T03:49:43;93.43;;;36.37;;
40847;SDS011;26570;50.962;5.340;2022-12-10T03:52:29;92.50;;;36.23;;
40847;SDS011;26570;50.962;5.340;2022-12-10T03:55:14;96.07;;;35.73;;
40847;SDS011;26570;50.962;5.340;2022-12-10T03:57:59;94.37;;;36.37;;
40847;SDS011;26570;50.962;5.340;2022-12-10T04:00:44;108.90;;;39.00;;
40847;SDS011;26570;50.962;5.340;2022-12-10T04:03:52;100.83;;;37.10;;
40847;SDS011;26570;50.962;5.340;2022-12-10T04:06:38;101.17;;;37.23;;
40847;SDS011;26570;50.962;5.340;2022-12-10T04:09:24;91.47;;;35.07;;
40847;SDS011;26570;50.962;5.340;2022-12-10T04:12:09;104.03;;;37.43;;
40847;SDS011;26570;50.962;5.340;2022-12-10T04:14:54;99.97;;;37.50;;
40847;SDS011;26570;50.962;5.340;2022-12-10T04:17:58;98.57;;;36.80;;
40847;SDS011;26570;50.962;5.340;2022-12-10T04:21:05;96.77;;;36.63;;
40847;SDS011;26570;50.962;5.340;2022-12-10T04:24:09;103.43;;;36.53;;
40847;SDS011;26570;50.962;5.340;2022-12-10T04:27:18;99.93;;;37.53;;
40847;SDS011;26570;50.962;5.340;2022-12-10T04:30:05;110.80;;;38.97;;
40847;SDS011;26570;50.962;5.340;2022-12-10T04:32:53;102.57;;;39.03;;
40847;SDS011;26570;50.962;5.340;2022-12-10T04:35:38;98.23;;;36.33;;
40847;SDS011;26570;50.962;5.340;2022-12-10T04:38:23;101.90;;;37.77;;
40847;SDS011;26570;50.962;5.340;2022-12-10T04:41:08;108.30;;;39.60;;
40847;SDS011;26570;50.962;5.340;2022-12-10T04:43:59;89.30;;;34.27;;
40847;SDS011;26570;50.962;5.340;2022-12-10T04:46:45;93.87;;;35.73;;
40847;SDS011;26570;50.962;5.340;2022-12-10T04:49:31;107.63;;;38.70;;
40847;SDS011;26570;50.962;5.340;2022-12-10T04:52:16;102.47;;;38.53;;
40847;SDS011;26570;50.962;5.340;2022-12-10T04:55:02;99.97;;;36.93;;
40847;SDS011;26570;50.962;5.340;2022-12-10T04:57:47;106.50;;;37.10;;
40847;SDS011;26570;50.962;5.340;2022-12-10T05:01:00;101.63;;;38.40;;
40847;SDS011;26570;50.962;5.340;2022-12-10T05:03:46;96.33;;;37.10;;
40847;SDS011;26570;50.962;5.340;2022-12-10T05:06:31;113.20;;;38.67;;
40847;SDS011;26570;50.962;5.340;2022-12-10T05:09:17;98.63;;;36.13;;
40847;SDS011;26570;50.962;5.340;2022-12-10T05:12:02;100.17;;;37.87;;
40847;SDS011;26570;50.962;5.340;2022-12-10T05:14:48;107.83;;;39.10;;
40847;SDS011;26570;50.962;5.340;2022-12-10T05:17:33;100.80;;;37.07;;
40847;SDS011;26570;50.962;5.340;2022-12-10T05:20:19;104.97;;;36.83;;
40847;SDS011;26570;50.962;5.340;2022-12-10T05:23:04;107.47;;;38.30;;
40847;SDS011;26570;50.962;5.340;2022-12-10T05:26:09;106.57;;;39.40;;
40847;SDS011;26570;50.962;5.340;2022-12-10T05:28:57;99.10;;;37.40;;
40847;SDS011;26570;50.962;5.340;2022-12-10T05:31:43;109.30;;;38.07;;
40847;SDS011;26570;50.962;5.340;2022-12-10T05:34:28;105.77;;;35.97;;
40847;SDS011;26570;50.962;5.340;2022-12-10T05:37:35;97.93;;;36.07;;
40847;SDS011;26570;50.962;5.340;2022-12-10T05:40:21;111.30;;;38.70;;
40847;SDS011;26570;50.962;5.340;2022-12-10T05:43:06;116.17;;;39.60;;
40847;SDS011;26570;50.962;5.340;2022-12-10T05:45:51;107.90;;;38.67;;
40847;SDS011;26570;50.962;5.340;2022-12-10T05:48:37;106.10;;;35.93;;
40847;SDS011;26570;50.962;5.340;2022-12-10T05:51:27;105.47;;;37.83;;
40847;SDS011;26570;50.962;5.340;2022-12-10T05:54:15;103.13;;;36.93;;
40847;SDS011;26570;50.962;5.340;2022-12-10T05:56:59;112.83;;;38.43;;
40847;SDS011;26570;50.962;5.340;2022-12-10T05:59:45;116.87;;;39.33;;
40847;SDS011;26570;50.962;5.340;2022-12-10T06:02:53;112.23;;;37.70;;
40847;SDS011;26570;50.962;5.340;2022-12-10T06:05:39;101.27;;;35.97;;
40847;SDS011;26570;50.962;5.340;2022-12-10T06:08:25;98.93;;;36.17;;
40847;SDS011;26570;50.962;5.340;2022-12-10T06:11:10;106.97;;;36.47;;
40847;SDS011;26570;50.962;5.340;2022-12-10T06:13:58;105.33;;;37.90;;
40847;SDS011;26570;50.962;5.340;2022-12-10T06:16:45;103.63;;;38.20;;
40847;SDS011;26570;50.962;5.340;2022-12-10T06:19:31;100.90;;;37.27;;
40847;SDS011;26570;50.962;5.340;2022-12-10T06:22:16;112.63;;;39.90;;
40847;SDS011;26570;50.962;5.340;2022-12-10T06:25:01;106.70;;;38.90;;
40847;SDS011;26570;50.962;5.340;2022-12-10T06:27:49;104.90;;;37.13;;
40847;SDS011;26570;50.962;5.340;2022-12-10T06:30:35;112.73;;;40.27;;
40847;SDS011;26570;50.962;5.340;2022-12-10T06:33:20;104.80;;;38.00;;
40847;SDS011;26570;50.962;5.340;2022-12-10T06:36:06;106.10;;;39.67;;
40847;SDS011;26570;50.962;5.340;2022-12-10T06:38:55;101.90;;;37.83;;
40847;SDS011;26570;50.962;5.340;2022-12-10T06:41:41;98.63;;;35.83;;
40847;SDS011;26570;50.962;5.340;2022-12-10T06:44:27;105.53;;;37.67;;
40847;SDS011;26570;50.962;5.340;2022-12-10T06:47:13;106.33;;;37.07;;
40847;SDS011;26570;50.962;5.340;2022-12-10T06:49:59;97.67;;;35.63;;
40847;SDS011;26570;50.962;5.340;2022-12-10T06:52:45;96.80;;;35.27;;
40847;SDS011;26570;50.962;5.340;2022-12-10T06:55:30;105.90;;;37.17;;
40847;SDS011;26570;50.962;5.340;2022-12-10T06:58:15;109.13;;;37.70;;
40847;SDS011;26570;50.962;5.340;2022-12-10T07:04:12;106.20;;;37.50;;
40847;SDS011;26570;50.962;5.340;2022-12-10T07:06:58;107.30;;;37.13;;
40847;SDS011;26570;50.962;5.340;2022-12-10T07:09:43;107.57;;;37.63;;
40847;SDS011;26570;50.962;5.340;2022-12-10T07:12:28;108.17;;;37.57;;
40847;SDS011;26570;50.962;5.340;2022-12-10T07:15:14;115.23;;;39.00;;
40847;SDS011;26570;50.962;5.340;2022-12-10T07:18:00;114.33;;;37.47;;
40847;SDS011;26570;50.962;5.340;2022-12-10T07:20:45;111.60;;;38.97;;
40847;SDS011;26570;50.962;5.340;2022-12-10T07:23:31;104.10;;;36.60;;
40847;SDS011;26570;50.962;5.340;2022-12-10T07:26:19;103.00;;;35.13;;
40847;SDS011;26570;50.962;5.340;2022-12-10T07:29:05;101.83;;;34.70;;
40847;SDS011;26570;50.962;5.340;2022-12-10T07:31:51;91.63;;;32.93;;
40847;SDS011;26570;50.962;5.340;2022-12-10T07:34:39;94.33;;;32.73;;
40847;SDS011;26570;50.962;5.340;2022-12-10T07:37:27;95.13;;;32.37;;
40847;SDS011;26570;50.962;5.340;2022-12-10T07:40:13;100.77;;;32.57;;
40847;SDS011;26570;50.962;5.340;2022-12-10T07:42:58;100.43;;;34.50;;
40847;SDS011;26570;50.962;5.340;2022-12-10T07:46:08;95.57;;;33.27;;
40847;SDS011;26570;50.962;5.340;2022-12-10T07:49:02;91.53;;;32.27;;
40847;SDS011;26570;50.962;5.340;2022-12-10T07:51:48;102.40;;;34.90;;
40847;SDS011;26570;50.962;5.340;2022-12-10T07:54:59;87.97;;;30.93;;
40847;SDS011;26570;50.962;5.340;2022-12-10T07:57:44;95.77;;;29.83;;
40847;SDS011;26570;50.962;5.340;2022-12-10T08:00:30;98.40;;;33.03;;
40847;SDS011;26570;50.962;5.340;2022-12-10T08:03:18;89.53;;;32.07;;
40847;SDS011;26570;50.962;5.340;2022-12-10T08:06:05;96.07;;;32.07;;
40847;SDS011;26570;50.962;5.340;2022-12-10T08:08:53;102.67;;;36.60;;
40847;SDS011;26570;50.962;5.340;2022-12-10T08:12:01;111.60;;;36.07;;
40847;SDS011;26570;50.962;5.340;2022-12-10T08:15:09;102.77;;;35.23;;
40847;SDS011;26570;50.962;5.340;2022-12-10T08:24:48;96.67;;;35.37;;
40847;SDS011;26570;50.962;5.340;2022-12-10T08:27:34;105.13;;;36.27;;
40847;SDS011;26570;50.962;5.340;2022-12-10T08:30:19;106.77;;;39.23;;
40847;SDS011;26570;50.962;5.340;2022-12-10T08:33:05;116.87;;;39.20;;
40847;SDS011;26570;50.962;5.340;2022-12-10T08:35:50;115.60;;;38.97;;
40847;SDS011;26570;50.962;5.340;2022-12-10T08:38:36;135.83;;;40.50;;
40847;SDS011;26570;50.962;5.340;2022-12-10T08:41:22;120.70;;;40.23;;
40847;SDS011;26570;50.962;5.340;2022-12-10T08:44:08;125.03;;;39.23;;
40847;SDS011;26570;50.962;5.340;2022-12-10T08:46:54;127.37;;;40.47;;
40847;SDS011;26570;50.962;5.340;2022-12-10T08:49:40;122.13;;;39.97;;
40847;SDS011;26570;50.962;5.340;2022-12-10T08:52:25;124.10;;;43.07;;
40847;SDS011;26570;50.962;5.340;2022-12-10T08:55:13;124.30;;;43.13;;
40847;SDS011;26570;50.962;5.340;2022-12-10T08:57:58;121.87;;;41.77;;
40847;SDS011;26570;50.962;5.340;2022-12-10T09:00:44;116.30;;;41.70;;
40847;SDS011;26570;50.962;5.340;2022-12-10T09:03:33;114.43;;;41.33;;
40847;SDS011;26570;50.962;5.340;2022-12-10T09:06:21;119.80;;;39.77;;
40847;SDS011;26570;50.962;5.340;2022-12-10T09:09:08;121.83;;;43.70;;
40847;SDS011;26570;50.962;5.340;2022-12-10T09:11:54;123.93;;;42.00;;
40847;SDS011;26570;50.962;5.340;2022-12-10T09:14:40;118.47;;;41.73;;
40847;SDS011;26570;50.962;5.340;2022-12-10T09:17:48;124.73;;;41.87;;
40847;SDS011;26570;50.962;5.340;2022-12-10T09:20:33;120.70;;;42.50;;
40847;SDS011;26570;50.962;5.340;2022-12-10T09:23:20;126.30;;;45.17;;
40847;SDS011;26570;50.962;5.340;2022-12-10T09:26:29;132.97;;;44.27;;
40847;SDS011;26570;50.962;5.340;2022-12-10T09:29:14;129.77;;;42.47;;
40847;SDS011;26570;50.962;5.340;2022-12-10T09:32:00;114.70;;;39.17;;
40847;SDS011;26570;50.962;5.340;2022-12-10T09:34:46;112.43;;;41.87;;
40847;SDS011;26570;50.962;5.340;2022-12-10T09:37:32;114.27;;;38.90;;
40847;SDS011;26570;50.962;5.340;2022-12-10T09:40:18;105.03;;;35.87;;
40847;SDS011;26570;50.962;5.340;2022-12-10T09:52:12;108.70;;;37.70;;
40847;SDS011;26570;50.962;5.340;2022-12-10T09:55:05;110.00;;;37.03;;
40847;SDS011;26570;50.962;5.340;2022-12-10T09:57:58;112.63;;;40.20;;
40847;SDS011;26570;50.962;5.340;2022-12-10T10:00:47;110.77;;;39.07;;
40847;SDS011;26570;50.962;5.340;2022-12-10T10:03:37;110.47;;;37.97;;
40847;SDS011;26570;50.962;5.340;2022-12-10T10:06:25;107.47;;;38.67;;
40847;SDS011;26570;50.962;5.340;2022-12-10T10:09:12;108.00;;;38.50;;
40847;SDS011;26570;50.962;5.340;2022-12-10T10:11:59;111.10;;;39.10;;
40847;SDS011;26570;50.962;5.340;2022-12-10T10:14:44;108.10;;;39.13;;
40847;SDS011;26570;50.962;5.340;2022-12-10T10:17:36;106.80;;;38.00;;
40847;SDS011;26570;50.962;5.340;2022-12-10T10:20:23;111.47;;;39.13;;
40847;SDS011;26570;50.962;5.340;2022-12-10T10:23:08;119.07;;;39.77;;
40847;SDS011;26570;50.962;5.340;2022-12-10T10:26:01;110.13;;;40.73;;
40847;SDS011;26570;50.962;5.340;2022-12-10T10:28:47;118.90;;;42.07;;
40847;SDS011;26570;50.962;5.340;2022-12-10T10:31:38;111.07;;;39.83;;
40847;SDS011;26570;50.962;5.340;2022-12-10T10:34:25;117.50;;;41.87;;
40847;SDS011;26570;50.962;5.340;2022-12-10T10:37:14;124.63;;;41.27;;
40847;SDS011;26570;50.962;5.340;2022-12-10T10:40:04;120.90;;;42.00;;
40847;SDS011;26570;50.962;5.340;2022-12-10T10:42:51;118.60;;;41.90;;
40847;SDS011;26570;50.962;5.340;2022-12-10T10:45:52;123.93;;;41.43;;
40847;SDS011;26570;50.962;5.340;2022-12-10T10:48:44;113.90;;;38.60;;
40847;SDS011;26570;50.962;5.340;2022-12-10T10:51:29;113.90;;;38.67;;
40847;SDS011;26570;50.962;5.340;2022-12-10T10:54:57;104.33;;;36.37;;
40847;SDS011;26570;50.962;5.340;2022-12-10T10:57:29;109.90;;;36.77;;
40847;SDS011;26570;50.962;5.340;2022-12-10T11:00:22;115.57;;;36.83;;
40847;SDS011;26570;50.962;5.340;2022-12-10T11:03:08;116.17;;;38.97;;
40847;SDS011;26570;50.962;5.340;2022-12-10T11:05:56;120.27;;;37.67;;
40847;SDS011;26570;50.962;5.340;2022-12-10T11:08:43;121.57;;;40.13;;
40847;SDS011;26570;50.962;5.340;2022-12-10T11:11:39;128.83;;;40.83;;
40847;SDS011;26570;50.962;5.340;2022-12-10T11:14:32;122.00;;;41.43;;
40847;SDS011;26570;50.962;5.340;2022-12-10T11:17:28;126.50;;;39.07;;
40847;SDS011;26570;50.962;5.340;2022-12-10T11:23:02;130.13;;;42.50;;
40847;SDS011;26570;50.962;5.340;2022-12-10T11:26:02;131.90;;;42.57;;
40847;SDS011;26570;50.962;5.340;2022-12-10T11:37:34;114.20;;;34.33;;
40847;SDS011;26570;50.962;5.340;2022-12-10T11:53:13;106.07;;;30.67;;
40847;SDS011;26570;50.962;5.340;2022-12-10T11:56:22;112.47;;;32.47;;
40847;SDS011;26570;50.962;5.340;2022-12-10T12:02:45;107.83;;;32.47;;
40847;SDS011;26570;50.962;5.340;2022-12-10T12:09:16;108.20;;;33.00;;
40847;SDS011;26570;50.962;5.340;2022-12-10T12:15:36;107.67;;;32.37;;
40847;SDS011;26570;50.962;5.340;2022-12-10T12:21:32;110.00;;;32.47;;
40847;SDS011;26570;50.962;5.340;2022-12-10T12:24:33;108.20;;;29.47;;
40847;SDS011;26570;50.962;5.340;2022-12-10T12:27:31;107.90;;;29.35;;
40847;SDS011;26570;50.962;5.340;2022-12-10T12:30:29;103.47;;;27.73;;
40847;SDS011;26570;50.962;5.340;2022-12-10T12:33:27;100.30;;;29.20;;
40847;SDS011;26570;50.962;5.340;2022-12-10T12:36:26;99.30;;;29.67;;
40847;SDS011;26570;50.962;5.340;2022-12-10T12:39:19;105.40;;;30.37;;
40847;SDS011;26570;50.962;5.340;2022-12-10T12:45:13;104.20;;;31.63;;
40847;SDS011;26570;50.962;5.340;2022-12-10T12:48:11;111.78;;;32.30;;
40847;SDS011;26570;50.962;5.340;2022-12-10T12:51:40;106.87;;;30.83;;
40847;SDS011;26570;50.962;5.340;2022-12-10T12:54:56;110.03;;;32.53;;
40847;SDS011;26570;50.962;5.340;2022-12-10T12:57:46;98.93;;;30.30;;
40847;SDS011;26570;50.962;5.340;2022-12-10T13:00:54;107.63;;;31.30;;
40847;SDS011;26570;50.962;5.340;2022-12-10T13:03:43;106.47;;;31.90;;
40847;SDS011;26570;50.962;5.340;2022-12-10T13:06:31;113.73;;;34.30;;
40847;SDS011;26570;50.962;5.340;2022-12-10T13:09:25;99.30;;;34.03;;
40847;SDS011;26570;50.962;5.340;2022-12-10T14:08:34;92.80;;;30.60;;
40847;SDS011;26570;50.962;5.340;2022-12-10T14:28:53;91.43;;;28.97;;
40847;SDS011;26570;50.962;5.340;2022-12-10T14:40:01;80.47;;;26.97;;
40847;SDS011;26570;50.962;5.340;2022-12-10T14:43:26;90.27;;;27.77;;
40847;SDS011;26570;50.962;5.340;2022-12-10T14:47:02;87.97;;;27.40;;
40847;SDS011;26570;50.962;5.340;2022-12-10T15:42:41;71.10;;;21.95;;
40847;SDS011;26570;50.962;5.340;2022-12-10T15:45:37;90.23;;;27.93;;
40847;SDS011;26570;50.962;5.340;2022-12-10T15:48:27;86.83;;;29.20;;
40847;SDS011;26570;50.962;5.340;2022-12-10T15:51:14;86.73;;;30.43;;
40847;SDS011;26570;50.962;5.340;2022-12-10T15:54:00;84.97;;;27.27;;
40847;SDS011;26570;50.962;5.340;2022-12-10T15:56:56;80.50;;;25.57;;
40847;SDS011;26570;50.962;5.340;2022-12-10T15:59:43;83.73;;;27.23;;
40847;SDS011;26570;50.962;5.340;2022-12-10T16:05:39;90.47;;;29.13;;
40847;SDS011;26570;50.962;5.340;2022-12-10T16:08:26;92.13;;;30.83;;
40847;SDS011;26570;50.962;5.340;2022-12-10T16:11:15;90.77;;;31.77;;
40847;SDS011;26570;50.962;5.340;2022-12-10T16:14:02;102.60;;;32.87;;
40847;SDS011;26570;50.962;5.340;2022-12-10T16:16:49;98.73;;;33.70;;
40847;SDS011;26570;50.962;5.340;2022-12-10T16:19:34;111.90;;;33.30;;
40847;SDS011;26570;50.962;5.340;2022-12-10T16:22:23;118.23;;;35.33;;
40847;SDS011;26570;50.962;5.340;2022-12-10T16:25:11;106.93;;;33.83;;
40847;SDS011;26570;50.962;5.340;2022-12-10T16:28:20;102.93;;;33.67;;
40847;SDS011;26570;50.962;5.340;2022-12-10T16:31:08;98.00;;;33.00;;
40847;SDS011;26570;50.962;5.340;2022-12-10T16:33:56;101.37;;;33.23;;
40847;SDS011;26570;50.962;5.340;2022-12-10T16:36:42;110.37;;;35.23;;
40847;SDS011;26570;50.962;5.340;2022-12-10T16:39:27;103.50;;;32.17;;
40847;SDS011;26570;50.962;5.340;2022-12-10T16:42:13;102.30;;;32.97;;
40847;SDS011;26570;50.962;5.340;2022-12-10T16:44:58;88.73;;;31.53;;
40847;SDS011;26570;50.962;5.340;2022-12-10T16:47:44;102.43;;;32.37;;
40847;SDS011;26570;50.962;5.340;2022-12-10T16:50:30;105.57;;;33.10;;
40847;SDS011;26570;50.962;5.340;2022-12-10T16:53:23;95.07;;;32.97;;
40847;SDS011;26570;50.962;5.340;2022-12-10T16:56:13;102.23;;;31.87;;
40847;SDS011;26570;50.962;5.340;2022-12-10T16:59:01;105.20;;;33.10;;
40847;SDS011;26570;50.962;5.340;2022-12-10T17:01:53;72.72;;;22.73;;
40847;SDS011;26570;50.962;5.340;2022-12-10T17:04:38;98.73;;;29.03;;
40847;SDS011;26570;50.962;5.340;2022-12-10T17:07:26;97.60;;;29.70;;
40847;SDS011;26570;50.962;5.340;2022-12-10T17:10:15;102.33;;;31.40;;
40847;SDS011;26570;50.962;5.340;2022-12-10T17:13:00;107.10;;;31.73;;
40847;SDS011;26570;50.962;5.340;2022-12-10T17:15:46;119.60;;;32.87;;
40847;SDS011;26570;50.962;5.340;2022-12-10T17:18:31;120.37;;;33.83;;
40847;SDS011;26570;50.962;5.340;2022-12-10T17:21:18;120.03;;;38.03;;
40847;SDS011;26570;50.962;5.340;2022-12-10T17:24:04;102.40;;;30.93;;
40847;SDS011;26570;50.962;5.340;2022-12-10T17:26:52;117.63;;;33.53;;
40847;SDS011;26570;50.962;5.340;2022-12-10T17:29:42;111.03;;;33.37;;
40847;SDS011;26570;50.962;5.340;2022-12-10T17:32:37;105.57;;;34.50;;
40847;SDS011;26570;50.962;5.340;2022-12-10T17:35:22;122.80;;;36.03;;
40847;SDS011;26570;50.962;5.340;2022-12-10T17:38:15;123.83;;;36.67;;
40847;SDS011;26570;50.962;5.340;2022-12-10T17:41:02;120.68;;;34.92;;
40847;SDS011;26570;50.962;5.340;2022-12-10T17:43:50;130.20;;;37.30;;
40847;SDS011;26570;50.962;5.340;2022-12-10T17:46:35;131.77;;;37.47;;
40847;SDS011;26570;50.962;5.340;2022-12-10T17:49:22;124.73;;;34.07;;
40847;SDS011;26570;50.962;5.340;2022-12-10T17:52:11;116.53;;;31.77;;
40847;SDS011;26570;50.962;5.340;2022-12-10T17:54:57;115.10;;;32.43;;
40847;SDS011;26570;50.962;5.340;2022-12-10T17:57:46;116.60;;;34.87;;
40847;SDS011;26570;50.962;5.340;2022-12-10T18:00:34;114.40;;;30.93;;
40847;SDS011;26570;50.962;5.340;2022-12-10T18:03:21;128.03;;;35.80;;
40847;SDS011;26570;50.962;5.340;2022-12-10T18:06:12;126.57;;;32.77;;
40847;SDS011;26570;50.962;5.340;2022-12-10T18:09:22;119.47;;;34.00;;
40847;SDS011;26570;50.962;5.340;2022-12-10T18:12:07;114.63;;;32.40;;
40847;SDS011;26570;50.962;5.340;2022-12-10T18:14:55;125.57;;;33.97;;
40847;SDS011;26570;50.962;5.340;2022-12-10T18:17:40;112.67;;;30.83;;
40847;SDS011;26570;50.962;5.340;2022-12-10T18:20:31;117.70;;;34.13;;
40847;SDS011;26570;50.962;5.340;2022-12-10T18:23:22;129.27;;;31.67;;
40847;SDS011;26570;50.962;5.340;2022-12-10T18:26:11;133.47;;;33.83;;
40847;SDS011;26570;50.962;5.340;2022-12-10T18:28:58;132.77;;;31.93;;
40847;SDS011;26570;50.962;5.340;2022-12-10T18:31:46;126.30;;;31.10;;
40847;SDS011;26570;50.962;5.340;2022-12-10T18:34:55;128.03;;;32.23;;
40847;SDS011;26570;50.962;5.340;2022-12-10T18:37:41;115.23;;;31.60;;
40847;SDS011;26570;50.962;5.340;2022-12-10T18:40:28;127.40;;;32.63;;
40847;SDS011;26570;50.962;5.340;2022-12-10T18:43:14;126.00;;;32.50;;
40847;SDS011;26570;50.962;5.340;2022-12-10T18:46:04;124.73;;;32.13;;
40847;SDS011;26570;50.962;5.340;2022-12-10T18:48:56;117.47;;;32.47;;
40847;SDS011;26570;50.962;5.340;2022-12-10T18:51:43;120.17;;;31.10;;
40847;SDS011;26570;50.962;5.340;2022-12-10T18:54:28;125.97;;;31.43;;
40847;SDS011;26570;50.962;5.340;2022-12-10T18:57:17;114.47;;;30.73;;
40847;SDS011;26570;50.962;5.340;2022-12-10T19:00:05;112.10;;;30.77;;
40847;SDS011;26570;50.962;5.340;2022-12-10T19:03:03;98.80;;;28.80;;
40847;SDS011;26570;50.962;5.340;2022-12-10T19:05:56;107.00;;;29.30;;
40847;SDS011;26570;50.962;5.340;2022-12-10T19:08:42;107.33;;;29.63;;
40847;SDS011;26570;50.962;5.340;2022-12-10T19:11:30;104.30;;;28.47;;
40847;SDS011;26570;50.962;5.340;2022-12-10T19:14:19;114.27;;;29.67;;
40847;SDS011;26570;50.962;5.340;2022-12-10T19:17:08;111.90;;;30.87;;
40847;SDS011;26570;50.962;5.340;2022-12-10T19:19:57;107.53;;;29.87;;
40847;SDS011;26570;50.962;5.340;2022-12-10T19:22:42;92.90;;;28.00;;
40847;SDS011;26570;50.962;5.340;2022-12-10T19:25:28;99.53;;;29.60;;
40847;SDS011;26570;50.962;5.340;2022-12-10T19:28:14;92.70;;;28.93;;
40847;SDS011;26570;50.962;5.340;2022-12-10T19:30:59;96.20;;;28.80;;
40847;SDS011;26570;50.962;5.340;2022-12-10T19:33:48;98.80;;;29.10;;
40847;SDS011;26570;50.962;5.340;2022-12-10T19:36:34;99.80;;;30.73;;
40847;SDS011;26570;50.962;5.340;2022-12-10T19:39:21;100.90;;;29.93;;
40847;SDS011;26570;50.962;5.340;2022-12-10T19:42:07;105.40;;;31.70;;
40847;SDS011;26570;50.962;5.340;2022-12-10T19:44:53;104.73;;;30.07;;
40847;SDS011;26570;50.962;5.340;2022-12-10T19:47:40;102.27;;;30.57;;
40847;SDS011;26570;50.962;5.340;2022-12-10T19:50:30;97.07;;;29.30;;
40847;SDS011;26570;50.962;5.340;2022-12-10T19:53:19;105.40;;;31.75;;
40847;SDS011;26570;50.962;5.340;2022-12-10T19:56:28;91.57;;;30.63;;
40847;SDS011;26570;50.962;5.340;2022-12-10T19:59:19;94.63;;;30.30;;
40847;SDS011;26570;50.962;5.340;2022-12-10T20:02:05;90.63;;;27.83;;
40847;SDS011;26570;50.962;5.340;2022-12-10T20:04:50;91.20;;;28.50;;
40847;SDS011;26570;50.962;5.340;2022-12-10T20:07:37;104.00;;;31.63;;
40847;SDS011;26570;50.962;5.340;2022-12-10T20:10:24;95.17;;;31.13;;
40847;SDS011;26570;50.962;5.340;2022-12-10T20:13:11;106.07;;;30.63;;
40847;SDS011;26570;50.962;5.340;2022-12-10T20:16:20;97.97;;;31.83;;
40847;SDS011;26570;50.962;5.340;2022-12-10T20:19:14;91.70;;;30.80;;
40847;SDS011;26570;50.962;5.340;2022-12-10T20:22:02;95.53;;;31.00;;
40847;SDS011;26570;50.962;5.340;2022-12-10T20:24:49;97.47;;;33.53;;
40847;SDS011;26570;50.962;5.340;2022-12-10T20:27:35;100.23;;;33.30;;
40847;SDS011;26570;50.962;5.340;2022-12-10T20:30:25;98.43;;;31.83;;
40847;SDS011;26570;50.962;5.340;2022-12-10T20:33:12;92.20;;;32.83;;
40847;SDS011;26570;50.962;5.340;2022-12-10T20:36:22;85.63;;;30.77;;
40847;SDS011;26570;50.962;5.340;2022-12-10T20:39:19;86.43;;;31.93;;
40847;SDS011;26570;50.962;5.340;2022-12-10T20:42:06;90.27;;;34.17;;
40847;SDS011;26570;50.962;5.340;2022-12-10T20:44:52;101.40;;;33.83;;
40847;SDS011;26570;50.962;5.340;2022-12-10T20:47:38;93.13;;;33.03;;
40847;SDS011;26570;50.962;5.340;2022-12-10T20:50:23;92.77;;;34.33;;
40847;SDS011;26570;50.962;5.340;2022-12-10T20:53:09;92.97;;;32.83;;
40847;SDS011;26570;50.962;5.340;2022-12-10T20:55:55;88.63;;;31.07;;
40847;SDS011;26570;50.962;5.340;2022-12-10T20:58:41;90.80;;;31.33;;